createdAt,value
2022-08-09T00:01:55.368Z,27.88
2022-08-09T00:04:34.154Z,27.86
2022-08-09T00:07:10.423Z,27.82
2022-08-09T00:09:40.323Z,27.78
2022-08-09T00:12:09.418Z,27.72
2022-08-09T00:14:55.921Z,27.65
2022-08-09T00:18:10.703Z,27.62
2022-08-09T00:20:15.265Z,27.57
2022-08-09T00:22:47.275Z,27.57
2022-08-09T00:25:23.450Z,27.55
2022-08-09T00:28:03.921Z,27.54
2022-08-09T00:30:33.545Z,27.55
2022-08-09T00:33:02.696Z,27.55
2022-08-09T00:35:43.316Z,27.54
2022-08-09T00:38:13.935Z,27.55
2022-08-09T00:40:53.126Z,27.51
2022-08-09T00:44:11.081Z,27.45
2022-08-09T00:46:11.159Z,27.41
2022-08-09T00:48:57.188Z,27.39
2022-08-09T00:51:33.757Z,27.36
2022-08-09T00:54:04.334Z,27.32
2022-08-09T00:56:33.168Z,27.28
2022-08-09T00:59:01.802Z,27.24
2022-08-09T01:01:44.578Z,27.20
2022-08-09T01:04:23.991Z,27.16
2022-08-09T01:07:05.214Z,27.11
2022-08-09T01:09:44.536Z,27.09
2022-08-09T01:12:26.757Z,27.11
2022-08-09T01:15:06.052Z,27.11
2022-08-09T01:17:57.775Z,27.14
2022-08-09T01:20:38.041Z,27.17
2022-08-09T01:24:01.748Z,27.19
2022-08-09T01:26:36.176Z,27.18
2022-08-09T01:29:06.368Z,27.18
2022-08-09T01:32:29.703Z,27.17
2022-08-09T01:34:27.133Z,27.16
2022-08-09T01:36:59.768Z,27.15
2022-08-09T01:39:31.090Z,27.12
2022-08-09T01:42:11.045Z,27.11
2022-08-09T01:44:42.322Z,27.09
2022-08-09T01:47:12.519Z,27.10
2022-08-09T01:49:43.065Z,27.08
2022-08-09T01:52:21.953Z,27.06
2022-08-09T01:54:57.600Z,27.07
2022-08-09T01:57:40.392Z,27.05
2022-08-09T02:00:34.641Z,26.99
2022-08-09T02:03:07.381Z,26.96
2022-08-09T02:06:03.369Z,26.92
2022-08-09T02:08:57.653Z,26.87
2022-08-09T02:11:42.042Z,26.84
2022-08-09T02:14:26.249Z,26.83
2022-08-09T02:17:15.535Z,26.80
2022-08-09T02:19:46.570Z,26.78
2022-08-09T02:22:34.849Z,26.77
2022-08-09T02:25:15.195Z,26.75
2022-08-09T02:28:00.107Z,26.73
2022-08-09T02:30:41.541Z,26.72
2022-08-09T02:33:14.225Z,26.72
2022-08-09T02:36:01.108Z,26.71
2022-08-09T02:38:35.431Z,26.70
2022-08-09T02:41:10.627Z,26.73
2022-08-09T02:43:54.710Z,26.74
2022-08-09T02:46:28.953Z,26.77
2022-08-09T02:49:04.463Z,26.78
2022-08-09T02:51:40.456Z,26.80
2022-08-09T02:54:13.932Z,26.80
2022-08-09T02:56:51.387Z,26.79
2022-08-09T02:59:26.538Z,26.81
2022-08-09T03:02:12.053Z,26.81
2022-08-09T03:04:42.980Z,26.79
2022-08-09T03:07:14.469Z,26.80
2022-08-09T03:09:54.259Z,26.79
2022-08-09T03:12:25.747Z,26.77
2022-08-09T03:14:56.641Z,26.76
2022-08-09T03:17:27.773Z,26.76
2022-08-09T03:20:03.195Z,26.75
2022-08-09T03:22:41.290Z,26.77
2022-08-09T03:25:25.779Z,26.75
2022-08-09T03:28:04.622Z,26.73
2022-08-09T03:30:40.611Z,26.73
2022-08-09T03:33:18.649Z,26.73
2022-08-09T03:36:12.554Z,26.73
2022-08-09T03:38:42.042Z,26.70
2022-08-09T03:41:14.631Z,26.69
2022-08-09T03:44:03.721Z,26.67
2022-08-09T03:46:34.644Z,26.66
2022-08-09T03:49:07.924Z,26.66
2022-08-09T03:51:55.621Z,26.66
2022-08-09T03:54:32.423Z,26.64
2022-08-09T03:57:18.595Z,26.61
2022-08-09T03:59:53.214Z,26.61
2022-08-09T04:02:28.348Z,26.57
2022-08-09T04:05:06.268Z,26.57
2022-08-09T04:07:52.476Z,26.55
2022-08-09T04:10:29.368Z,26.51
2022-08-09T04:13:04.245Z,26.51
2022-08-09T04:15:51.933Z,26.47
2022-08-09T04:18:22.515Z,26.45
2022-08-09T04:20:55.492Z,26.45
2022-08-09T04:23:25.806Z,26.42
2022-08-09T04:25:55.549Z,26.42
2022-08-09T04:28:30.798Z,26.40
2022-08-09T04:33:52.132Z,26.36
2022-08-09T04:36:26.048Z,26.32
2022-08-09T04:38:56.373Z,26.31
2022-08-09T04:41:32.829Z,26.32
2022-08-09T04:44:06.536Z,26.29
2022-08-09T04:46:59.517Z,26.29
2022-08-09T04:49:52.906Z,26.27
2022-08-09T04:52:26.514Z,26.25
2022-08-09T04:54:57.234Z,26.23
2022-08-09T04:57:26.920Z,26.24
2022-08-09T05:00:16.676Z,26.22
2022-08-09T05:02:48.528Z,26.21
2022-08-09T05:05:32.205Z,26.20
2022-08-09T05:08:13.831Z,26.19
2022-08-09T05:10:44.622Z,26.17
2022-08-09T05:13:14.281Z,26.17
2022-08-09T05:15:48.140Z,26.17
2022-08-09T05:18:55.244Z,26.18
2022-08-09T05:21:22.689Z,26.17
2022-08-09T05:24:00.286Z,26.16
2022-08-09T05:26:37.065Z,26.14
2022-08-09T05:29:21.972Z,26.13
2022-08-09T05:31:56.933Z,26.10
2022-08-09T05:34:31.245Z,26.06
2022-08-09T05:37:02.396Z,26.02
2022-08-09T05:39:43.716Z,26.01
2022-08-09T05:42:20.539Z,25.96
2022-08-09T05:45:00.374Z,25.93
2022-08-09T05:47:30.269Z,25.91
2022-08-09T05:50:31.069Z,25.90
2022-08-09T05:52:53.659Z,25.86
2022-08-09T05:55:25.248Z,25.86
2022-08-09T05:57:57.365Z,25.88
2022-08-09T06:00:29.572Z,25.86
2022-08-09T06:02:59.298Z,25.87
2022-08-09T06:05:30.777Z,25.90
2022-08-09T06:08:24.411Z,25.85
2022-08-09T06:10:56.085Z,25.85
2022-08-09T06:13:25.454Z,25.84
2022-08-09T06:15:58.088Z,25.87
2022-08-09T06:18:30.170Z,25.88
2022-08-09T06:20:59.806Z,25.90
2022-08-09T06:23:58.982Z,25.93
2022-08-09T06:26:28.428Z,25.95
2022-08-09T06:28:59.893Z,25.99
2022-08-09T06:31:40.173Z,26.02
2022-08-09T06:34:23.538Z,26.06
2022-08-09T06:36:59.122Z,26.04
2022-08-09T06:39:39.694Z,26.03
2022-08-09T06:42:24.467Z,26.01
2022-08-09T06:44:58.137Z,25.98
2022-08-09T06:47:29.933Z,25.93
2022-08-09T06:50:13.720Z,25.94
2022-08-09T06:52:48.867Z,25.93
2022-08-09T06:55:23.120Z,25.96
2022-08-09T06:58:03.139Z,26.00
2022-08-09T07:00:49.223Z,26.04
2022-08-09T07:03:27.806Z,26.03
2022-08-09T07:06:03.596Z,26.04
2022-08-09T07:08:37.272Z,26.06
2022-08-09T07:11:08.709Z,26.07
2022-08-09T07:13:45.328Z,26.06
2022-08-09T07:16:41.668Z,26.03
2022-08-09T07:19:15.545Z,25.98
2022-08-09T07:21:55.381Z,25.94
2022-08-09T07:24:31.935Z,25.93
2022-08-09T07:27:26.307Z,25.99
2022-08-09T07:30:02.688Z,26.06
2022-08-09T07:32:34.305Z,26.10
2022-08-09T07:35:10.199Z,26.11
2022-08-09T07:37:44.489Z,26.09
2022-08-09T07:40:18.566Z,26.09
2022-08-09T07:42:54.418Z,26.08
2022-08-09T07:45:39.150Z,26.11
2022-08-09T07:48:25.566Z,26.12
2022-08-09T07:51:09.177Z,26.16
2022-08-09T07:54:05.321Z,26.18
2022-08-09T07:56:38.930Z,26.20
2022-08-09T07:59:34.049Z,26.20
2022-08-09T08:02:07.497Z,26.26
2022-08-09T08:04:38.882Z,26.28
2022-08-09T08:07:14.954Z,26.34
2022-08-09T08:10:08.864Z,26.42
2022-08-09T08:12:45.502Z,26.46
2022-08-09T08:15:18.178Z,26.48
2022-08-09T08:17:58.516Z,26.52
2022-08-09T08:20:32.755Z,26.56
2022-08-09T08:23:16.008Z,26.61
2022-08-09T08:25:49.912Z,26.69
2022-08-09T08:28:26.116Z,26.76
2022-08-09T08:31:13.663Z,26.80
2022-08-09T08:33:52.710Z,26.84
2022-08-09T08:36:29.036Z,26.85
2022-08-09T08:39:00.164Z,26.92
2022-08-09T08:41:50.398Z,27.01
2022-08-09T08:44:27.414Z,27.10
2022-08-09T08:47:02.096Z,27.14
2022-08-09T08:49:46.957Z,27.18
2022-08-09T08:52:52.755Z,27.64
2022-08-09T08:55:10.959Z,27.43
2022-08-09T08:57:42.616Z,27.40
2022-08-09T09:00:27.276Z,27.43
2022-08-09T09:03:12.166Z,27.46
2022-08-09T09:05:59.793Z,27.50
2022-08-09T09:08:37.826Z,27.55
2022-08-09T09:11:13.886Z,27.60
2022-08-09T09:13:57.038Z,27.69
2022-08-09T09:16:32.233Z,27.75
2022-08-09T09:19:22.418Z,27.78
2022-08-09T09:22:07.993Z,27.84
2022-08-09T09:24:46.584Z,27.91
2022-08-09T09:28:04.184Z,27.97
2022-08-09T09:30:40.046Z,28.02
2022-08-09T09:33:14.256Z,28.05
2022-08-09T09:36:02.678Z,28.10
2022-08-09T09:38:49.748Z,28.12
2022-08-09T09:41:32.942Z,28.16
2022-08-09T09:44:12.490Z,28.21
2022-08-09T09:46:50.640Z,28.26
2022-08-09T09:49:49.901Z,28.31
2022-08-09T09:52:16.524Z,28.38
2022-08-09T09:55:16.012Z,28.50
2022-08-09T09:58:03.860Z,28.56
2022-08-09T10:00:55.526Z,28.64
2022-08-09T10:03:42.825Z,28.69
2022-08-09T10:06:13.458Z,28.74
2022-08-09T10:08:54.827Z,28.78
2022-08-09T10:12:01.143Z,28.85
2022-08-09T10:14:32.992Z,28.93
2022-08-09T10:17:39.207Z,29.00
2022-08-09T10:20:01.657Z,29.09
2022-08-09T10:22:33.649Z,29.17
2022-08-09T10:25:11.107Z,29.21
2022-08-09T10:27:56.613Z,29.25
2022-08-09T10:33:29.669Z,29.38
2022-08-09T10:36:09.726Z,29.45
2022-08-09T10:38:56.893Z,29.56
2022-08-09T10:41:28.897Z,29.64
2022-08-09T10:44:01.874Z,29.67
2022-08-09T10:47:04.048Z,29.66
2022-08-09T10:50:05.675Z,29.72
2022-08-09T10:53:15.530Z,29.81
2022-08-09T10:55:58.456Z,29.85
2022-08-09T10:58:34.681Z,29.90
2022-08-09T11:03:03.191Z,29.96
2022-08-09T11:04:20.157Z,30.03
2022-08-09T11:07:55.046Z,30.06
2022-08-09T11:10:56.129Z,30.12
2022-08-09T11:13:50.001Z,30.16
2022-08-09T11:16:39.331Z,30.24
2022-08-09T11:19:12.322Z,30.32
2022-08-09T11:22:10.817Z,30.42
2022-08-09T11:25:08.196Z,30.49
2022-08-09T11:28:02.469Z,30.56
2022-08-09T11:30:38.506Z,30.63
2022-08-09T11:33:28.237Z,30.68
2022-08-09T11:36:00.205Z,30.74
2022-08-09T11:38:33.308Z,30.79
2022-08-09T11:41:38.338Z,30.86
2022-08-09T11:44:10.286Z,30.92
2022-08-09T11:46:58.013Z,31.00
2022-08-09T11:50:55.202Z,31.06
2022-08-09T11:53:59.355Z,31.10
2022-08-09T11:56:34.522Z,31.12
2022-08-09T11:59:30.572Z,31.19
2022-08-09T12:02:17.379Z,31.25
2022-08-09T12:04:58.792Z,31.30
2022-08-09T12:07:41.625Z,31.34
2022-08-09T12:10:14.377Z,31.40
2022-08-09T12:13:03.479Z,31.44
2022-08-09T12:15:52.091Z,31.50
2022-08-09T12:18:30.067Z,31.55
2022-08-09T12:21:26.183Z,31.63
2022-08-09T12:24:08.903Z,31.70
2022-08-09T12:26:44.866Z,31.75
2022-08-09T12:29:51.466Z,31.81
2022-08-09T12:32:27.647Z,31.86
2022-08-09T12:35:02.630Z,31.90
2022-08-09T12:37:49.633Z,31.95
2022-08-09T12:40:23.212Z,31.97
2022-08-09T12:42:54.580Z,31.99
2022-08-09T12:45:34.814Z,31.99
2022-08-09T12:48:11.037Z,32.03
2022-08-09T12:50:57.860Z,32.07
2022-08-09T12:53:37.154Z,32.13
2022-08-09T12:56:39.697Z,32.22
2022-08-09T12:59:10.439Z,32.28
2022-08-09T13:01:48.759Z,32.30
2022-08-09T13:04:35.927Z,32.32
2022-08-09T13:07:16.405Z,32.37
2022-08-09T13:09:55.740Z,32.42
2022-08-09T13:12:32.342Z,32.47
2022-08-09T13:15:07.648Z,32.48
2022-08-09T13:18:02.860Z,32.50
2022-08-09T13:20:37.826Z,32.52
2022-08-09T13:24:16.422Z,32.56
2022-08-09T13:26:36.681Z,32.61
2022-08-09T13:29:14.110Z,32.67
2022-08-09T13:32:15.665Z,32.67
2022-08-09T13:34:48.546Z,32.68
2022-08-09T13:37:24.717Z,32.73
2022-08-09T13:41:45.908Z,32.74
2022-08-09T13:42:57.124Z,32.78
2022-08-09T13:45:32.405Z,32.84
2022-08-09T13:48:15.721Z,32.89
2022-08-09T13:50:44.570Z,32.95
2022-08-09T13:53:16.733Z,33.00
2022-08-09T13:55:47.950Z,33.06
2022-08-09T13:58:16.902Z,33.10
2022-08-09T14:00:52.589Z,33.14
2022-08-09T14:04:05.366Z,33.15
2022-08-09T14:06:19.223Z,33.21
2022-08-09T14:08:48.358Z,33.28
2022-08-09T14:11:18.503Z,33.36
2022-08-09T14:14:23.469Z,33.43
2022-08-09T14:16:40.518Z,33.49
2022-08-09T14:19:09.343Z,33.50
2022-08-09T14:21:38.150Z,33.51
2022-08-09T14:24:18.630Z,33.51
2022-08-09T14:26:53.480Z,33.51
2022-08-09T14:30:04.196Z,33.52
2022-08-09T14:32:16.147Z,33.53
2022-08-09T14:34:45.243Z,33.51
2022-08-09T14:37:13.794Z,33.53
2022-08-09T14:39:46.536Z,33.53
2022-08-09T14:42:30.166Z,33.49
2022-08-09T14:46:39.558Z,33.44
2022-08-09T14:47:58.609Z,33.39
2022-08-09T14:50:32.312Z,33.33
2022-08-09T14:53:02.181Z,33.30
2022-08-09T14:55:32.337Z,33.31
2022-08-09T14:58:03.712Z,33.32
2022-08-09T15:00:36.276Z,33.32
2022-08-09T15:03:08.909Z,33.31
2022-08-09T15:05:50.175Z,33.29
2022-08-09T15:08:21.239Z,33.26
2022-08-09T15:11:01.071Z,33.27
2022-08-09T15:13:53.765Z,33.25
2022-08-09T15:16:22.850Z,33.21
2022-08-09T15:19:05.668Z,33.20
2022-08-09T15:21:58.055Z,33.19
2022-08-09T15:24:29.970Z,33.15
2022-08-09T15:26:59.644Z,33.15
2022-08-09T15:30:57.710Z,33.18
2022-08-09T15:32:28.862Z,33.19
2022-08-09T15:35:01.345Z,33.21
2022-08-09T15:37:56.331Z,33.17
2022-08-09T15:40:32.375Z,33.11
2022-08-09T15:43:02.571Z,33.11
2022-08-09T15:46:02.843Z,33.09
2022-08-09T15:48:29.321Z,33.07
2022-08-09T15:51:02.702Z,33.06
2022-08-09T15:54:04.806Z,33.01
2022-08-09T15:56:39.805Z,32.99
2022-08-09T15:59:08.577Z,32.97
2022-08-09T16:01:37.255Z,32.91
2022-08-09T16:04:06.138Z,32.89
2022-08-09T16:06:44.815Z,32.91
2022-08-09T16:09:19.439Z,32.93
2022-08-09T16:12:11.228Z,32.97
2022-08-09T16:14:40.361Z,33.00
2022-08-09T16:17:08.866Z,33.26
2022-08-09T16:19:49.237Z,33.07
2022-08-09T16:22:28.090Z,32.96
2022-08-09T16:24:59.572Z,32.96
2022-08-09T16:27:30.270Z,32.93
2022-08-09T16:30:02.445Z,32.89
2022-08-09T16:32:54.447Z,32.86
2022-08-09T16:35:55.961Z,32.85
2022-08-09T16:38:14.339Z,32.85
2022-08-09T16:40:47.967Z,32.81
2022-08-09T16:43:16.574Z,32.78
2022-08-09T16:45:46.670Z,32.77
2022-08-09T16:48:38.241Z,32.73
2022-08-09T16:51:07.454Z,32.70
2022-08-09T16:53:56.255Z,32.71
2022-08-09T16:56:27.521Z,32.68
2022-08-09T16:59:00.993Z,32.65
2022-08-09T17:01:33.582Z,32.64
2022-08-09T17:04:03.481Z,32.65
2022-08-09T17:06:33.900Z,32.63
2022-08-09T17:09:43.955Z,32.61
2022-08-09T17:12:12.411Z,32.56
2022-08-09T17:14:47.816Z,32.55
2022-08-09T17:17:26.382Z,32.54
2022-08-09T17:20:28.710Z,32.53
2022-08-09T17:22:51.630Z,32.53
2022-08-09T17:25:23.545Z,32.56
2022-08-09T17:27:55.228Z,32.58
2022-08-09T17:30:26.530Z,32.56
2022-08-09T17:33:05.154Z,32.57
2022-08-09T17:35:46.751Z,32.56
2022-08-09T17:38:29.259Z,32.52
2022-08-09T17:41:03.309Z,32.49
2022-08-09T17:43:36.886Z,32.49
2022-08-09T17:46:09.161Z,32.49
2022-08-09T17:48:51.532Z,32.46
2022-08-09T17:51:22.082Z,32.43
2022-08-09T17:53:54.804Z,32.41
2022-08-09T17:56:35.289Z,32.37
2022-08-09T17:59:11.273Z,32.32
2022-08-09T18:02:07.508Z,32.27
2022-08-09T18:04:33.911Z,32.23
2022-08-09T18:07:07.768Z,32.21
2022-08-09T18:09:41.599Z,32.19
2022-08-09T18:12:19.712Z,32.14
2022-08-09T18:14:54.570Z,32.08
2022-08-09T18:18:02.806Z,32.06
2022-08-09T18:20:59.838Z,32.05
2022-08-09T18:23:05.772Z,32.06
2022-08-09T18:25:52.762Z,32.06
2022-08-09T18:30:37.956Z,32.05
2022-08-09T18:31:19.264Z,32.05
2022-08-09T18:34:01.816Z,32.05
2022-08-09T18:36:32.514Z,32.05
2022-08-09T18:39:03.692Z,32.04
2022-08-09T18:41:35.036Z,32.04
2022-08-09T18:44:13.039Z,32.01
2022-08-09T18:46:50.612Z,31.99
2022-08-09T18:49:41.718Z,31.93
2022-08-09T18:52:18.914Z,31.89
2022-08-09T18:54:57.586Z,31.86
2022-08-09T18:57:38.408Z,31.87
2022-08-09T19:00:20.206Z,31.85
2022-08-09T19:02:50.945Z,31.84
2022-08-09T19:05:41.414Z,31.84
2022-08-09T19:08:14.211Z,31.85
2022-08-09T19:10:48.953Z,31.84
2022-08-09T19:13:20.980Z,31.82
2022-08-09T19:15:56.314Z,31.80
2022-08-09T19:18:33.326Z,31.79
2022-08-09T19:21:08.850Z,31.77
2022-08-09T19:24:33.433Z,31.77
2022-08-09T19:26:31.383Z,31.74
2022-08-09T19:29:03.226Z,31.71
2022-08-09T19:31:45.697Z,31.69
2022-08-09T19:34:22.007Z,31.62
2022-08-09T19:36:53.078Z,31.58
2022-08-09T19:39:29.172Z,31.54
2022-08-09T19:42:14.660Z,31.50
2022-08-09T19:44:50.868Z,31.47
2022-08-09T19:47:23.691Z,31.45
2022-08-09T19:50:09.778Z,31.43
2022-08-09T19:52:51.882Z,31.41
2022-08-09T19:55:30.633Z,31.39
2022-08-09T19:58:16.766Z,31.35
2022-08-09T20:00:46.829Z,31.33
2022-08-09T20:04:11.034Z,31.36
2022-08-09T20:06:22.516Z,31.34
2022-08-09T20:08:55.550Z,31.32
2022-08-09T20:11:26.551Z,31.33
2022-08-09T20:13:56.182Z,31.33
2022-08-09T20:16:36.616Z,31.33
2022-08-09T20:19:46.430Z,31.34
2022-08-09T20:22:00.163Z,31.34
2022-08-09T20:24:33.953Z,31.33
2022-08-09T20:27:05.765Z,31.33
2022-08-09T20:29:39.266Z,31.32
2022-08-09T20:32:31.301Z,31.31
2022-08-09T20:35:00.045Z,31.29
2022-08-09T20:38:20.349Z,31.26
2022-08-09T20:40:26.606Z,31.23
2022-08-09T20:42:59.824Z,31.19
2022-08-09T20:46:01.201Z,31.13
2022-08-09T20:48:30.938Z,31.09
2022-08-09T20:51:03.076Z,31.08
2022-08-09T20:53:35.291Z,31.07
2022-08-09T20:56:17.394Z,31.08
2022-08-09T20:58:54.609Z,31.07
2022-08-09T21:01:34.973Z,31.06
2022-08-09T21:05:57.854Z,31.05
2022-08-09T21:07:12.060Z,31.06
2022-08-09T21:09:55.327Z,31.05
2022-08-09T21:15:15.140Z,31.01
2022-08-09T21:18:20.975Z,31.00
2022-08-09T21:20:35.381Z,30.95
2022-08-09T21:23:09.103Z,30.92
2022-08-09T21:25:59.156Z,30.90
2022-08-09T21:28:35.094Z,30.88
2022-08-09T21:31:16.110Z,30.86
2022-08-09T21:33:50.669Z,30.84
2022-08-09T21:36:23.557Z,30.84
2022-08-09T21:38:57.299Z,30.81
2022-08-09T21:42:00.179Z,30.80
2022-08-09T21:44:34.800Z,30.76
2022-08-09T21:47:07.722Z,30.72
2022-08-09T21:49:39.500Z,30.70
2022-08-09T21:52:14.992Z,30.68
2022-08-09T21:54:50.957Z,30.69
2022-08-09T21:57:39.586Z,30.65
2022-08-09T22:00:25.379Z,30.63
2022-08-09T22:02:58.114Z,30.60
2022-08-09T22:05:36.021Z,30.58
2022-08-09T22:08:12.840Z,30.53
2022-08-09T22:11:49.021Z,30.50
2022-08-09T22:13:35.693Z,30.45
2022-08-09T22:16:09.371Z,30.42
2022-08-09T22:18:52.163Z,30.37
2022-08-09T22:21:45.205Z,30.31
2022-08-09T22:24:17.054Z,30.25
2022-08-09T22:26:51.230Z,30.22
2022-08-09T22:29:28.953Z,30.20
2022-08-09T22:32:07.514Z,30.17
2022-08-09T22:35:02.235Z,30.15
2022-08-09T22:37:40.119Z,30.15
2022-08-09T22:40:20.163Z,30.13
2022-08-09T22:42:50.788Z,30.10
2022-08-09T22:48:11.844Z,30.09
2022-08-09T22:48:18.084Z,30.06
2022-08-09T22:50:56.826Z,30.06
2022-08-09T22:53:25.920Z,30.06
2022-08-09T22:56:30.893Z,30.06
2022-08-09T22:58:52.392Z,30.03
2022-08-09T23:01:21.049Z,30.01
2022-08-09T23:04:03.576Z,30.01
2022-08-09T23:06:48.831Z,30.00
2022-08-09T23:09:17.675Z,29.98
2022-08-09T23:11:46.196Z,29.98
2022-08-09T23:14:17.685Z,29.97
2022-08-09T23:17:05.982Z,29.94
2022-08-09T23:20:06.129Z,29.93
2022-08-09T23:22:23.181Z,29.91
2022-08-09T23:24:51.867Z,29.89
2022-08-09T23:27:20.596Z,29.88
2022-08-09T23:29:50.541Z,29.87
2022-08-09T23:32:19.051Z,29.86
2022-08-09T23:34:48.423Z,29.84
2022-08-09T23:37:21.348Z,29.82
2022-08-09T23:39:51.480Z,29.82
2022-08-09T23:42:20.439Z,29.80
2022-08-09T23:44:50.410Z,29.80
2022-08-09T23:47:21.488Z,29.76
2022-08-09T23:49:49.999Z,29.75
2022-08-09T23:52:18.599Z,29.71
2022-08-09T23:54:51.928Z,29.66
2022-08-09T23:57:20.499Z,29.62
